Карточка аэропорта UNWW

Внимание!
Информация на этой странице в стадии наполнения.
Если вы не увидели какой-то информации, или заметили неточность - пожалуйста сообщите нам!
Спасибо!
Команда RU-STAFF
Название аэропортаСпиченково
Название аэропорта (англ.)Spichenkovo
Превышение1023 ft. (311.8 m.)
Координаты53°48.714', 86°52.704'
Высота перехода800m
Эшелон переходаFL050
Коды ответчика5270-5277
Зона ОрВДНовосибирск РПИ (UNNT)
Данные METARUNWW 241500Z 00000MPS 9999 SCT040CB 16/08 Q1014 R19/09//55 NOSIG RMK QFE733
Проноз погоды (TAF)UNWW 241400Z 2415/2515 35003G08MPS 8000 SCT040CB TX21/2509Z TN08/2423Z TEMPO 2415/2417 25008G16MPS -TSRA BKN020CB TEMPO 2417/2503 0300 FG BKN002 BKN040CB TEMPO 2508/2515 01008G15MPS -TSRA BKN020CB
NOTAMshow/hide NOTAM
AWOS   TABLE

Информация о ВПП

ВПП Длина ВПП (м.) Покрытие Курс ВПП Частота ILS
192679Цементобетон194111.1
012679Цементобетон14 

Диспетчерские позиции

Позывной Наименование органа УВД Частота
UNWW_APPНовокузнецк-Подход118.6
UNWW_TWRНовокузнецк-Старт121.2



Спутниковое изображение